sensor_id;sensor_type;location;lat;lon;timestamp;P1;durP1;ratioP1;P2;durP2;ratioP2
8656;SDS011;4366;50.764;7.184;2023-01-29T00:00:21;28.57;;;17.37;;
8656;SDS011;4366;50.764;7.184;2023-01-29T00:05:23;23.03;;;15.30;;
8656;SDS011;4366;50.764;7.184;2023-01-29T00:10:28;27.13;;;16.67;;
8656;SDS011;4366;50.764;7.184;2023-01-29T00:15:30;25.17;;;16.00;;
8656;SDS011;4366;50.764;7.184;2023-01-29T00:20:32;29.03;;;16.67;;
8656;SDS011;4366;50.764;7.184;2023-01-29T00:25:34;28.07;;;17.80;;
8656;SDS011;4366;50.764;7.184;2023-01-29T00:30:36;27.23;;;16.20;;
8656;SDS011;4366;50.764;7.184;2023-01-29T00:35:38;28.87;;;17.07;;
8656;SDS011;4366;50.764;7.184;2023-01-29T00:40:41;27.47;;;17.80;;
8656;SDS011;4366;50.764;7.184;2023-01-29T00:46:01;28.93;;;18.20;;
8656;SDS011;4366;50.764;7.184;2023-01-29T00:51:02;30.70;;;17.60;;
8656;SDS011;4366;50.764;7.184;2023-01-29T00:56:04;30.57;;;18.13;;
8656;SDS011;4366;50.764;7.184;2023-01-29T01:01:06;30.30;;;18.17;;
8656;SDS011;4366;50.764;7.184;2023-01-29T01:06:09;27.53;;;17.80;;
8656;SDS011;4366;50.764;7.184;2023-01-29T01:11:11;27.77;;;17.13;;
8656;SDS011;4366;50.764;7.184;2023-01-29T01:16:15;27.40;;;16.43;;
8656;SDS011;4366;50.764;7.184;2023-01-29T01:21:18;25.60;;;17.07;;
8656;SDS011;4366;50.764;7.184;2023-01-29T01:26:20;26.47;;;17.77;;
8656;SDS011;4366;50.764;7.184;2023-01-29T01:31:22;29.20;;;16.97;;
8656;SDS011;4366;50.764;7.184;2023-01-29T01:36:23;28.63;;;17.13;;
8656;SDS011;4366;50.764;7.184;2023-01-29T01:41:25;30.60;;;18.27;;
8656;SDS011;4366;50.764;7.184;2023-01-29T01:46:27;30.27;;;17.97;;
8656;SDS011;4366;50.764;7.184;2023-01-29T01:51:31;30.17;;;17.63;;
8656;SDS011;4366;50.764;7.184;2023-01-29T01:56:35;28.97;;;17.47;;
8656;SDS011;4366;50.764;7.184;2023-01-29T02:01:42;25.80;;;15.93;;
8656;SDS011;4366;50.764;7.184;2023-01-29T02:06:50;26.67;;;16.87;;
8656;SDS011;4366;50.764;7.184;2023-01-29T02:12:12;29.63;;;16.83;;
8656;SDS011;4366;50.764;7.184;2023-01-29T02:17:17;25.40;;;16.70;;
8656;SDS011;4366;50.764;7.184;2023-01-29T02:48:43;24.63;;;14.93;;
8656;SDS011;4366;50.764;7.184;2023-01-29T02:53:53;21.73;;;14.83;;
8656;SDS011;4366;50.764;7.184;2023-01-29T02:59:04;21.20;;;14.20;;
8656;SDS011;4366;50.764;7.184;2023-01-29T03:04:10;25.03;;;15.77;;
8656;SDS011;4366;50.764;7.184;2023-01-29T03:09:33;20.53;;;13.80;;
8656;SDS011;4366;50.764;7.184;2023-01-29T03:14:40;20.40;;;14.23;;
8656;SDS011;4366;50.764;7.184;2023-01-29T03:20:02;28.13;;;15.33;;
8656;SDS011;4366;50.764;7.184;2023-01-29T03:25:08;19.90;;;14.07;;
8656;SDS011;4366;50.764;7.184;2023-01-29T03:30:40;24.80;;;15.27;;
8656;SDS011;4366;50.764;7.184;2023-01-29T03:36:16;24.23;;;14.67;;
8656;SDS011;4366;50.764;7.184;2023-01-29T03:41:23;22.23;;;15.07;;
8656;SDS011;4366;50.764;7.184;2023-01-29T03:46:35;22.60;;;15.00;;
8656;SDS011;4366;50.764;7.184;2023-01-29T04:02:04;25.37;;;16.10;;
8656;SDS011;4366;50.764;7.184;2023-01-29T04:07:10;27.77;;;15.97;;
8656;SDS011;4366;50.764;7.184;2023-01-29T04:12:34;28.10;;;16.60;;
8656;SDS011;4366;50.764;7.184;2023-01-29T04:17:40;29.60;;;16.20;;
8656;SDS011;4366;50.764;7.184;2023-01-29T04:22:50;24.80;;;14.90;;
8656;SDS011;4366;50.764;7.184;2023-01-29T04:39:11;23.50;;;14.07;;
8656;SDS011;4366;50.764;7.184;2023-01-29T04:44:24;23.70;;;14.67;;
8656;SDS011;4366;50.764;7.184;2023-01-29T04:59:55;26.57;;;17.63;;
8656;SDS011;4366;50.764;7.184;2023-01-29T05:05:00;28.33;;;16.47;;
8656;SDS011;4366;50.764;7.184;2023-01-29T05:10:04;28.03;;;16.60;;
8656;SDS011;4366;50.764;7.184;2023-01-29T05:15:08;23.67;;;15.93;;
8656;SDS011;4366;50.764;7.184;2023-01-29T05:20:21;26.57;;;15.90;;
8656;SDS011;4366;50.764;7.184;2023-01-29T05:25:27;29.27;;;16.80;;
8656;SDS011;4366;50.764;7.184;2023-01-29T05:30:32;27.40;;;16.20;;
8656;SDS011;4366;50.764;7.184;2023-01-29T05:35:35;30.47;;;17.80;;
8656;SDS011;4366;50.764;7.184;2023-01-29T05:40:46;28.07;;;17.30;;
8656;SDS011;4366;50.764;7.184;2023-01-29T05:45:55;29.70;;;16.97;;
8656;SDS011;4366;50.764;7.184;2023-01-29T05:51:01;29.23;;;17.23;;
8656;SDS011;4366;50.764;7.184;2023-01-29T05:56:04;30.53;;;17.50;;
8656;SDS011;4366;50.764;7.184;2023-01-29T06:01:13;31.23;;;16.73;;
8656;SDS011;4366;50.764;7.184;2023-01-29T06:06:16;28.77;;;17.93;;
8656;SDS011;4366;50.764;7.184;2023-01-29T06:11:17;31.53;;;18.13;;
8656;SDS011;4366;50.764;7.184;2023-01-29T06:16:19;27.33;;;16.23;;
8656;SDS011;4366;50.764;7.184;2023-01-29T06:21:21;28.77;;;17.73;;
8656;SDS011;4366;50.764;7.184;2023-01-29T06:26:22;30.63;;;16.70;;
8656;SDS011;4366;50.764;7.184;2023-01-29T06:31:25;30.70;;;16.97;;
8656;SDS011;4366;50.764;7.184;2023-01-29T06:36:39;30.50;;;17.47;;
8656;SDS011;4366;50.764;7.184;2023-01-29T06:41:43;30.20;;;17.77;;
8656;SDS011;4366;50.764;7.184;2023-01-29T06:46:45;25.93;;;15.57;;
8656;SDS011;4366;50.764;7.184;2023-01-29T06:51:48;30.73;;;17.23;;
8656;SDS011;4366;50.764;7.184;2023-01-29T06:56:51;26.43;;;16.77;;
8656;SDS011;4366;50.764;7.184;2023-01-29T07:01:52;27.47;;;16.10;;
8656;SDS011;4366;50.764;7.184;2023-01-29T07:06:54;31.93;;;18.27;;
8656;SDS011;4366;50.764;7.184;2023-01-29T07:11:57;27.37;;;16.57;;
8656;SDS011;4366;50.764;7.184;2023-01-29T07:16:58;25.50;;;17.17;;
8656;SDS011;4366;50.764;7.184;2023-01-29T07:22:00;23.23;;;15.80;;
8656;SDS011;4366;50.764;7.184;2023-01-29T07:27:03;27.20;;;18.70;;
8656;SDS011;4366;50.764;7.184;2023-01-29T07:32:05;30.57;;;18.43;;
8656;SDS011;4366;50.764;7.184;2023-01-29T07:37:08;31.17;;;17.10;;
8656;SDS011;4366;50.764;7.184;2023-01-29T07:42:09;25.73;;;16.20;;
8656;SDS011;4366;50.764;7.184;2023-01-29T07:47:11;29.07;;;16.60;;
8656;SDS011;4366;50.764;7.184;2023-01-29T07:52:12;31.83;;;16.67;;
8656;SDS011;4366;50.764;7.184;2023-01-29T07:57:14;25.23;;;16.20;;
8656;SDS011;4366;50.764;7.184;2023-01-29T08:02:16;30.80;;;18.47;;
8656;SDS011;4366;50.764;7.184;2023-01-29T08:07:18;27.57;;;17.93;;
8656;SDS011;4366;50.764;7.184;2023-01-29T08:12:19;31.10;;;19.00;;
8656;SDS011;4366;50.764;7.184;2023-01-29T08:17:21;30.87;;;18.63;;
8656;SDS011;4366;50.764;7.184;2023-01-29T08:22:22;30.27;;;18.03;;
8656;SDS011;4366;50.764;7.184;2023-01-29T08:27:24;32.67;;;19.80;;
8656;SDS011;4366;50.764;7.184;2023-01-29T08:32:25;30.87;;;18.43;;
8656;SDS011;4366;50.764;7.184;2023-01-29T08:37:27;30.80;;;19.57;;
8656;SDS011;4366;50.764;7.184;2023-01-29T08:42:29;37.23;;;20.83;;
8656;SDS011;4366;50.764;7.184;2023-01-29T08:47:30;33.50;;;20.17;;
8656;SDS011;4366;50.764;7.184;2023-01-29T08:52:32;37.10;;;21.03;;
8656;SDS011;4366;50.764;7.184;2023-01-29T08:57:34;34.90;;;21.80;;
8656;SDS011;4366;50.764;7.184;2023-01-29T09:02:36;35.30;;;20.70;;
8656;SDS011;4366;50.764;7.184;2023-01-29T09:07:37;32.07;;;19.83;;
8656;SDS011;4366;50.764;7.184;2023-01-29T09:12:39;35.17;;;21.57;;
8656;SDS011;4366;50.764;7.184;2023-01-29T09:17:41;33.07;;;20.30;;
8656;SDS011;4366;50.764;7.184;2023-01-29T09:22:43;34.47;;;20.63;;
8656;SDS011;4366;50.764;7.184;2023-01-29T09:27:45;33.80;;;20.53;;
8656;SDS011;4366;50.764;7.184;2023-01-29T09:32:47;31.87;;;18.77;;
8656;SDS011;4366;50.764;7.184;2023-01-29T09:37:54;36.50;;;21.20;;
8656;SDS011;4366;50.764;7.184;2023-01-29T09:42:57;35.50;;;21.73;;
8656;SDS011;4366;50.764;7.184;2023-01-29T09:48:20;32.60;;;20.13;;
8656;SDS011;4366;50.764;7.184;2023-01-29T09:53:41;30.10;;;18.00;;
8656;SDS011;4366;50.764;7.184;2023-01-29T09:58:47;25.37;;;16.43;;
8656;SDS011;4366;50.764;7.184;2023-01-29T10:04:15;29.73;;;18.37;;
8656;SDS011;4366;50.764;7.184;2023-01-29T10:20:18;22.63;;;15.97;;
8656;SDS011;4366;50.764;7.184;2023-01-29T10:25:28;23.13;;;14.33;;
8656;SDS011;4366;50.764;7.184;2023-01-29T10:30:31;17.70;;;12.53;;
8656;SDS011;4366;50.764;7.184;2023-01-29T10:35:36;17.50;;;12.47;;
8656;SDS011;4366;50.764;7.184;2023-01-29T10:40:45;16.17;;;11.97;;
8656;SDS011;4366;50.764;7.184;2023-01-29T11:01:44;15.90;;;12.10;;
8656;SDS011;4366;50.764;7.184;2023-01-29T11:06:45;19.33;;;13.97;;
8656;SDS011;4366;50.764;7.184;2023-01-29T11:11:48;16.07;;;11.67;;
8656;SDS011;4366;50.764;7.184;2023-01-29T11:16:51;17.27;;;11.80;;
8656;SDS011;4366;50.764;7.184;2023-01-29T11:21:57;17.33;;;12.37;;
8656;SDS011;4366;50.764;7.184;2023-01-29T11:27:00;15.63;;;12.60;;
8656;SDS011;4366;50.764;7.184;2023-01-29T11:32:03;17.30;;;12.40;;
8656;SDS011;4366;50.764;7.184;2023-01-29T11:37:14;15.97;;;11.60;;
8656;SDS011;4366;50.764;7.184;2023-01-29T11:42:20;16.67;;;12.50;;
8656;SDS011;4366;50.764;7.184;2023-01-29T11:47:27;19.23;;;13.23;;
8656;SDS011;4366;50.764;7.184;2023-01-29T11:52:36;17.20;;;12.17;;
8656;SDS011;4366;50.764;7.184;2023-01-29T11:57:41;15.53;;;12.03;;
8656;SDS011;4366;50.764;7.184;2023-01-29T12:02:44;14.43;;;11.27;;
8656;SDS011;4366;50.764;7.184;2023-01-29T12:07:48;16.03;;;11.63;;
8656;SDS011;4366;50.764;7.184;2023-01-29T12:12:51;14.53;;;11.50;;
8656;SDS011;4366;50.764;7.184;2023-01-29T12:18:09;16.43;;;11.90;;
8656;SDS011;4366;50.764;7.184;2023-01-29T12:28:30;15.03;;;11.07;;
8656;SDS011;4366;50.764;7.184;2023-01-29T12:33:41;16.20;;;11.83;;
8656;SDS011;4366;50.764;7.184;2023-01-29T12:38:47;18.43;;;12.30;;
8656;SDS011;4366;50.764;7.184;2023-01-29T12:43:49;18.73;;;12.33;;
8656;SDS011;4366;50.764;7.184;2023-01-29T12:48:54;17.43;;;12.83;;
8656;SDS011;4366;50.764;7.184;2023-01-29T12:54:03;21.30;;;14.00;;
8656;SDS011;4366;50.764;7.184;2023-01-29T12:59:19;18.37;;;12.20;;
8656;SDS011;4366;50.764;7.184;2023-01-29T13:04:36;20.47;;;13.77;;
8656;SDS011;4366;50.764;7.184;2023-01-29T13:09:45;21.30;;;13.60;;
8656;SDS011;4366;50.764;7.184;2023-01-29T13:14:53;17.60;;;12.70;;
8656;SDS011;4366;50.764;7.184;2023-01-29T13:19:57;16.00;;;12.20;;
8656;SDS011;4366;50.764;7.184;2023-01-29T13:25:02;16.63;;;11.73;;
8656;SDS011;4366;50.764;7.184;2023-01-29T13:30:06;18.47;;;12.50;;
8656;SDS011;4366;50.764;7.184;2023-01-29T13:35:11;17.53;;;12.37;;
8656;SDS011;4366;50.764;7.184;2023-01-29T13:40:22;18.27;;;11.90;;
8656;SDS011;4366;50.764;7.184;2023-01-29T13:45:28;16.03;;;12.10;;
8656;SDS011;4366;50.764;7.184;2023-01-29T13:50:35;18.90;;;12.23;;
8656;SDS011;4366;50.764;7.184;2023-01-29T13:55:40;15.03;;;11.33;;
8656;SDS011;4366;50.764;7.184;2023-01-29T14:05:44;16.53;;;11.47;;
8656;SDS011;4366;50.764;7.184;2023-01-29T14:36:41;15.03;;;10.73;;
8656;SDS011;4366;50.764;7.184;2023-01-29T14:41:43;14.87;;;10.30;;
8656;SDS011;4366;50.764;7.184;2023-01-29T14:46:45;14.70;;;10.33;;
8656;SDS011;4366;50.764;7.184;2023-01-29T14:51:47;14.20;;;10.30;;
8656;SDS011;4366;50.764;7.184;2023-01-29T14:56:52;15.10;;;10.70;;
8656;SDS011;4366;50.764;7.184;2023-01-29T15:01:59;14.80;;;10.20;;
8656;SDS011;4366;50.764;7.184;2023-01-29T15:12:26;16.57;;;11.67;;
8656;SDS011;4366;50.764;7.184;2023-01-29T15:17:35;18.90;;;11.17;;
8656;SDS011;4366;50.764;7.184;2023-01-29T15:22:41;18.23;;;13.90;;
8656;SDS011;4366;50.764;7.184;2023-01-29T15:27:43;16.27;;;11.80;;
8656;SDS011;4366;50.764;7.184;2023-01-29T15:32:47;15.53;;;11.27;;
8656;SDS011;4366;50.764;7.184;2023-01-29T15:37:59;16.73;;;11.57;;
8656;SDS011;4366;50.764;7.184;2023-01-29T15:43:41;14.63;;;11.03;;
8656;SDS011;4366;50.764;7.184;2023-01-29T15:48:39;15.73;;;11.23;;
8656;SDS011;4366;50.764;7.184;2023-01-29T15:53:49;15.60;;;10.77;;
8656;SDS011;4366;50.764;7.184;2023-01-29T15:58:53;16.43;;;11.87;;
8656;SDS011;4366;50.764;7.184;2023-01-29T16:03:56;15.30;;;11.60;;
8656;SDS011;4366;50.764;7.184;2023-01-29T16:09:02;18.00;;;11.97;;
8656;SDS011;4366;50.764;7.184;2023-01-29T16:14:04;19.97;;;12.47;;
8656;SDS011;4366;50.764;7.184;2023-01-29T16:19:18;18.40;;;12.37;;
8656;SDS011;4366;50.764;7.184;2023-01-29T16:24:22;16.90;;;11.37;;
8656;SDS011;4366;50.764;7.184;2023-01-29T16:29:29;12.80;;;9.40;;
8656;SDS011;4366;50.764;7.184;2023-01-29T16:34:37;13.40;;;9.87;;
8656;SDS011;4366;50.764;7.184;2023-01-29T16:39:42;11.93;;;9.00;;
8656;SDS011;4366;50.764;7.184;2023-01-29T16:45:01;15.67;;;9.90;;
8656;SDS011;4366;50.764;7.184;2023-01-29T16:55:25;15.00;;;9.47;;
8656;SDS011;4366;50.764;7.184;2023-01-29T17:00:27;14.90;;;9.33;;
8656;SDS011;4366;50.764;7.184;2023-01-29T17:05:31;15.63;;;9.40;;
8656;SDS011;4366;50.764;7.184;2023-01-29T17:10:35;14.50;;;9.83;;
8656;SDS011;4366;50.764;7.184;2023-01-29T17:20:44;13.90;;;9.30;;
8656;SDS011;4366;50.764;7.184;2023-01-29T17:25:46;12.97;;;8.80;;
8656;SDS011;4366;50.764;7.184;2023-01-29T17:30:48;14.33;;;10.23;;
8656;SDS011;4366;50.764;7.184;2023-01-29T17:36:12;13.73;;;9.30;;
8656;SDS011;4366;50.764;7.184;2023-01-29T17:41:23;14.43;;;9.20;;
8656;SDS011;4366;50.764;7.184;2023-01-29T17:46:26;14.57;;;9.13;;
8656;SDS011;4366;50.764;7.184;2023-01-29T17:51:28;13.87;;;9.13;;
8656;SDS011;4366;50.764;7.184;2023-01-29T17:56:29;14.20;;;8.57;;
8656;SDS011;4366;50.764;7.184;2023-01-29T18:01:31;10.43;;;8.00;;
8656;SDS011;4366;50.764;7.184;2023-01-29T18:06:33;11.87;;;8.63;;
8656;SDS011;4366;50.764;7.184;2023-01-29T18:11:36;11.47;;;8.17;;
8656;SDS011;4366;50.764;7.184;2023-01-29T18:16:38;11.93;;;8.40;;
8656;SDS011;4366;50.764;7.184;2023-01-29T18:21:41;12.13;;;8.93;;
8656;SDS011;4366;50.764;7.184;2023-01-29T18:26:42;12.93;;;8.33;;
8656;SDS011;4366;50.764;7.184;2023-01-29T18:31:46;13.83;;;9.37;;
8656;SDS011;4366;50.764;7.184;2023-01-29T18:36:50;14.27;;;8.83;;
8656;SDS011;4366;50.764;7.184;2023-01-29T18:41:51;15.57;;;10.20;;
8656;SDS011;4366;50.764;7.184;2023-01-29T18:46:54;15.60;;;10.43;;
8656;SDS011;4366;50.764;7.184;2023-01-29T18:51:55;20.23;;;12.70;;
8656;SDS011;4366;50.764;7.184;2023-01-29T18:56:58;17.97;;;11.57;;
8656;SDS011;4366;50.764;7.184;2023-01-29T19:02:15;17.10;;;11.00;;
8656;SDS011;4366;50.764;7.184;2023-01-29T19:07:17;18.87;;;11.13;;
8656;SDS011;4366;50.764;7.184;2023-01-29T19:12:20;17.77;;;10.57;;
8656;SDS011;4366;50.764;7.184;2023-01-29T19:17:23;17.37;;;11.07;;
8656;SDS011;4366;50.764;7.184;2023-01-29T19:22:24;17.87;;;12.03;;
8656;SDS011;4366;50.764;7.184;2023-01-29T19:27:26;17.60;;;10.80;;
8656;SDS011;4366;50.764;7.184;2023-01-29T19:32:30;15.57;;;10.07;;
8656;SDS011;4366;50.764;7.184;2023-01-29T19:37:32;18.73;;;11.47;;
8656;SDS011;4366;50.764;7.184;2023-01-29T19:42:35;18.53;;;10.83;;
8656;SDS011;4366;50.764;7.184;2023-01-29T19:47:41;16.73;;;10.60;;
8656;SDS011;4366;50.764;7.184;2023-01-29T19:52:44;19.40;;;11.60;;
8656;SDS011;4366;50.764;7.184;2023-01-29T19:57:53;16.37;;;10.53;;
8656;SDS011;4366;50.764;7.184;2023-01-29T20:02:55;17.13;;;11.03;;
8656;SDS011;4366;50.764;7.184;2023-01-29T20:07:57;15.37;;;10.43;;
8656;SDS011;4366;50.764;7.184;2023-01-29T20:12:58;15.43;;;9.97;;
8656;SDS011;4366;50.764;7.184;2023-01-29T20:18:00;16.53;;;10.87;;
8656;SDS011;4366;50.764;7.184;2023-01-29T20:23:02;15.27;;;10.37;;
8656;SDS011;4366;50.764;7.184;2023-01-29T20:28:05;15.77;;;10.00;;
8656;SDS011;4366;50.764;7.184;2023-01-29T20:33:08;18.73;;;11.23;;
8656;SDS011;4366;50.764;7.184;2023-01-29T20:38:10;17.33;;;10.37;;
8656;SDS011;4366;50.764;7.184;2023-01-29T20:43:12;15.83;;;10.27;;
8656;SDS011;4366;50.764;7.184;2023-01-29T20:48:14;17.50;;;10.53;;
8656;SDS011;4366;50.764;7.184;2023-01-29T20:53:15;15.50;;;9.67;;
8656;SDS011;4366;50.764;7.184;2023-01-29T20:58:17;15.17;;;9.70;;
8656;SDS011;4366;50.764;7.184;2023-01-29T21:03:19;16.50;;;9.50;;
8656;SDS011;4366;50.764;7.184;2023-01-29T21:08:20;14.67;;;9.43;;
8656;SDS011;4366;50.764;7.184;2023-01-29T21:13:22;16.07;;;9.80;;
8656;SDS011;4366;50.764;7.184;2023-01-29T21:18:24;15.10;;;9.50;;
8656;SDS011;4366;50.764;7.184;2023-01-29T21:23:26;16.07;;;10.00;;
8656;SDS011;4366;50.764;7.184;2023-01-29T21:28:28;16.70;;;9.60;;
8656;SDS011;4366;50.764;7.184;2023-01-29T21:33:29;14.20;;;9.40;;
8656;SDS011;4366;50.764;7.184;2023-01-29T21:38:31;15.03;;;9.07;;
8656;SDS011;4366;50.764;7.184;2023-01-29T21:43:33;14.60;;;9.63;;
8656;SDS011;4366;50.764;7.184;2023-01-29T21:48:36;15.33;;;8.97;;
8656;SDS011;4366;50.764;7.184;2023-01-29T21:53:39;16.57;;;10.53;;
8656;SDS011;4366;50.764;7.184;2023-01-29T21:58:41;15.17;;;9.53;;
8656;SDS011;4366;50.764;7.184;2023-01-29T22:03:42;13.23;;;9.30;;
8656;SDS011;4366;50.764;7.184;2023-01-29T22:08:48;18.03;;;10.30;;
8656;SDS011;4366;50.764;7.184;2023-01-29T22:13:50;15.30;;;9.90;;
8656;SDS011;4366;50.764;7.184;2023-01-29T22:18:53;14.43;;;9.50;;
8656;SDS011;4366;50.764;7.184;2023-01-29T22:23:54;14.00;;;8.33;;
8656;SDS011;4366;50.764;7.184;2023-01-29T22:28:56;11.37;;;8.47;;
8656;SDS011;4366;50.764;7.184;2023-01-29T22:33:58;13.50;;;9.00;;
8656;SDS011;4366;50.764;7.184;2023-01-29T22:39:00;11.90;;;8.70;;
8656;SDS011;4366;50.764;7.184;2023-01-29T22:44:01;11.20;;;7.97;;
8656;SDS011;4366;50.764;7.184;2023-01-29T22:49:03;12.43;;;8.83;;
8656;SDS011;4366;50.764;7.184;2023-01-29T22:54:05;14.03;;;8.47;;
8656;SDS011;4366;50.764;7.184;2023-01-29T22:59:08;11.80;;;7.40;;
8656;SDS011;4366;50.764;7.184;2023-01-29T23:04:10;11.63;;;7.87;;
8656;SDS011;4366;50.764;7.184;2023-01-29T23:09:11;11.03;;;7.73;;
8656;SDS011;4366;50.764;7.184;2023-01-29T23:14:13;12.10;;;8.07;;
8656;SDS011;4366;50.764;7.184;2023-01-29T23:19:15;9.83;;;7.03;;
8656;SDS011;4366;50.764;7.184;2023-01-29T23:24:16;10.40;;;7.20;;
8656;SDS011;4366;50.764;7.184;2023-01-29T23:29:18;10.90;;;7.80;;
8656;SDS011;4366;50.764;7.184;2023-01-29T23:34:20;11.23;;;7.30;;
8656;SDS011;4366;50.764;7.184;2023-01-29T23:39:22;8.63;;;6.73;;
8656;SDS011;4366;50.764;7.184;2023-01-29T23:44:23;7.40;;;5.67;;
8656;SDS011;4366;50.764;7.184;2023-01-29T23:49:25;6.80;;;5.37;;
8656;SDS011;4366;50.764;7.184;2023-01-29T23:54:27;7.37;;;5.90;;
8656;SDS011;4366;50.764;7.184;2023-01-29T23:59:29;7.63;;;5.63;;
